sensor_id;sensor_type;location;lat;lon;timestamp;pressure;altitude;pressure_sealevel;temperature;humidity
57847;BME280;43675;50.030;21.952;2023-08-06T00:01:31;97378.20;;;20.51;94.65
57847;BME280;43675;50.030;21.952;2023-08-06T00:03:57;97378.48;;;20.46;94.52
57847;BME280;43675;50.030;21.952;2023-08-06T00:06:24;97370.08;;;20.41;94.60
57847;BME280;43675;50.030;21.952;2023-08-06T00:08:50;97365.63;;;20.38;94.74
57847;BME280;43675;50.030;21.952;2023-08-06T00:11:17;97364.94;;;20.36;94.83
57847;BME280;43675;50.030;21.952;2023-08-06T00:13:43;97359.58;;;20.35;94.83
57847;BME280;43675;50.030;21.952;2023-08-06T00:16:13;97366.46;;;20.34;94.87
57847;BME280;43675;50.030;21.952;2023-08-06T00:18:40;97356.16;;;20.32;94.85
57847;BME280;43675;50.030;21.952;2023-08-06T00:21:07;97354.41;;;20.30;94.91
57847;BME280;43675;50.030;21.952;2023-08-06T00:23:34;97354.64;;;20.26;94.92
57847;BME280;43675;50.030;21.952;2023-08-06T00:26:00;97353.35;;;20.22;95.06
57847;BME280;43675;50.030;21.952;2023-08-06T00:28:27;97350.11;;;20.21;95.10
57847;BME280;43675;50.030;21.952;2023-08-06T00:30:54;97345.02;;;20.21;95.04
57847;BME280;43675;50.030;21.952;2023-08-06T00:33:21;97344.36;;;20.18;95.20
57847;BME280;43675;50.030;21.952;2023-08-06T00:35:48;97342.21;;;20.15;95.15
57847;BME280;43675;50.030;21.952;2023-08-06T00:38:15;97340.91;;;20.12;95.32
57847;BME280;43675;50.030;21.952;2023-08-06T00:40:42;97340.78;;;20.11;95.32
57847;BME280;43675;50.030;21.952;2023-08-06T00:43:08;97331.89;;;20.08;95.37
57847;BME280;43675;50.030;21.952;2023-08-06T00:45:36;97328.54;;;20.08;95.48
57847;BME280;43675;50.030;21.952;2023-08-06T00:48:04;97324.86;;;20.09;95.55
57847;BME280;43675;50.030;21.952;2023-08-06T00:50:31;97326.17;;;20.20;95.38
57847;BME280;43675;50.030;21.952;2023-08-06T00:52:58;97323.62;;;20.32;94.68
57847;BME280;43675;50.030;21.952;2023-08-06T00:55:25;97325.00;;;20.34;94.47
57847;BME280;43675;50.030;21.952;2023-08-06T00:57:53;97327.88;;;20.25;94.41
57847;BME280;43675;50.030;21.952;2023-08-06T01:00:21;97328.14;;;20.15;94.69
57847;BME280;43675;50.030;21.952;2023-08-06T01:02:48;97327.30;;;20.10;94.90
57847;BME280;43675;50.030;21.952;2023-08-06T01:05:15;97327.33;;;20.17;94.81
57847;BME280;43675;50.030;21.952;2023-08-06T01:08:36;97326.42;;;20.28;94.49
57847;BME280;43675;50.030;21.952;2023-08-06T01:13:45;97319.23;;;20.14;94.26
57847;BME280;43675;50.030;21.952;2023-08-06T01:16:17;97315.59;;;20.07;94.54
57847;BME280;43675;50.030;21.952;2023-08-06T01:18:44;97310.30;;;20.00;94.68
57847;BME280;43675;50.030;21.952;2023-08-06T01:21:11;97303.02;;;19.97;95.05
57847;BME280;43675;50.030;21.952;2023-08-06T01:23:37;97298.17;;;20.06;94.86
57847;BME280;43675;50.030;21.952;2023-08-06T01:26:19;97290.92;;;20.18;94.55
57847;BME280;43675;50.030;21.952;2023-08-06T01:31:37;97285.15;;;20.30;93.68
57847;BME280;43675;50.030;21.952;2023-08-06T01:34:10;97280.67;;;20.33;93.53
57847;BME280;43675;50.030;21.952;2023-08-06T01:36:38;97279.71;;;20.35;93.38
57847;BME280;43675;50.030;21.952;2023-08-06T01:39:05;97275.09;;;20.36;93.39
57847;BME280;43675;50.030;21.952;2023-08-06T01:41:31;97269.71;;;20.37;92.99
57847;BME280;43675;50.030;21.952;2023-08-06T01:43:58;97266.91;;;20.39;93.19
57847;BME280;43675;50.030;21.952;2023-08-06T01:46:24;97262.23;;;20.40;93.10
57847;BME280;43675;50.030;21.952;2023-08-06T01:48:51;97260.25;;;20.41;92.88
57847;BME280;43675;50.030;21.952;2023-08-06T01:51:17;97261.52;;;20.40;92.90
57847;BME280;43675;50.030;21.952;2023-08-06T01:53:44;97264.56;;;20.41;92.80
57847;BME280;43675;50.030;21.952;2023-08-06T01:56:10;97262.20;;;20.41;92.77
57847;BME280;43675;50.030;21.952;2023-08-06T01:58:37;97259.90;;;20.42;92.62
57847;BME280;43675;50.030;21.952;2023-08-06T02:01:03;97258.41;;;20.31;92.83
57847;BME280;43675;50.030;21.952;2023-08-06T02:03:30;97254.36;;;20.21;93.38
57847;BME280;43675;50.030;21.952;2023-08-06T02:05:56;97248.79;;;20.14;93.60
57847;BME280;43675;50.030;21.952;2023-08-06T02:08:23;97251.16;;;20.09;93.79
57847;BME280;43675;50.030;21.952;2023-08-06T02:10:49;97246.27;;;20.06;93.85
57847;BME280;43675;50.030;21.952;2023-08-06T02:13:16;97247.10;;;20.01;93.94
57847;BME280;43675;50.030;21.952;2023-08-06T02:15:43;97241.66;;;19.97;94.00
57847;BME280;43675;50.030;21.952;2023-08-06T02:18:10;97241.53;;;19.93;94.14
57847;BME280;43675;50.030;21.952;2023-08-06T02:20:36;97242.52;;;19.91;94.31
57847;BME280;43675;50.030;21.952;2023-08-06T02:23:03;97242.42;;;19.91;94.43
57847;BME280;43675;50.030;21.952;2023-08-06T02:25:29;97236.30;;;19.91;94.57
57847;BME280;43675;50.030;21.952;2023-08-06T02:27:56;97238.27;;;19.91;94.72
57847;BME280;43675;50.030;21.952;2023-08-06T02:30:22;97236.42;;;19.92;94.92
57847;BME280;43675;50.030;21.952;2023-08-06T02:32:49;97235.48;;;19.93;94.84
57847;BME280;43675;50.030;21.952;2023-08-06T02:35:15;97238.78;;;19.94;95.01
57847;BME280;43675;50.030;21.952;2023-08-06T02:37:42;97235.45;;;19.94;95.05
57847;BME280;43675;50.030;21.952;2023-08-06T02:40:09;97232.42;;;19.94;95.13
57847;BME280;43675;50.030;21.952;2023-08-06T02:42:36;97227.52;;;19.94;94.94
57847;BME280;43675;50.030;21.952;2023-08-06T02:45:03;97223.98;;;19.94;95.20
57847;BME280;43675;50.030;21.952;2023-08-06T02:47:29;97224.52;;;19.94;95.22
57847;BME280;43675;50.030;21.952;2023-08-06T02:49:56;97221.63;;;19.95;95.34
57847;BME280;43675;50.030;21.952;2023-08-06T02:52:22;97221.27;;;20.07;95.27
57847;BME280;43675;50.030;21.952;2023-08-06T02:54:49;97219.33;;;20.21;94.75
57847;BME280;43675;50.030;21.952;2023-08-06T02:57:15;97217.27;;;20.32;94.34
57847;BME280;43675;50.030;21.952;2023-08-06T02:59:42;97212.83;;;20.39;94.06
57847;BME280;43675;50.030;21.952;2023-08-06T03:02:08;97205.80;;;20.45;93.82
57847;BME280;43675;50.030;21.952;2023-08-06T03:04:35;97198.16;;;20.52;93.57
57847;BME280;43675;50.030;21.952;2023-08-06T03:07:01;97194.66;;;20.56;93.36
57847;BME280;43675;50.030;21.952;2023-08-06T03:09:28;97188.61;;;20.58;93.34
57847;BME280;43675;50.030;21.952;2023-08-06T03:11:54;97187.77;;;20.47;93.56
57847;BME280;43675;50.030;21.952;2023-08-06T03:14:21;97188.04;;;20.36;93.97
57847;BME280;43675;50.030;21.952;2023-08-06T03:16:47;97193.42;;;20.28;94.23
57847;BME280;43675;50.030;21.952;2023-08-06T03:19:14;97191.14;;;20.23;94.59
57847;BME280;43675;50.030;21.952;2023-08-06T03:21:40;97188.17;;;20.20;94.74
57847;BME280;43675;50.030;21.952;2023-08-06T03:24:07;97180.05;;;20.18;94.95
57847;BME280;43675;50.030;21.952;2023-08-06T03:26:33;97178.93;;;20.18;94.93
57847;BME280;43675;50.030;21.952;2023-08-06T03:29:00;97174.51;;;20.18;94.96
57847;BME280;43675;50.030;21.952;2023-08-06T03:31:26;97169.55;;;20.18;95.14
57847;BME280;43675;50.030;21.952;2023-08-06T03:33:53;97168.52;;;20.20;95.23
57847;BME280;43675;50.030;21.952;2023-08-06T03:36:19;97170.05;;;20.22;95.24
57847;BME280;43675;50.030;21.952;2023-08-06T03:38:46;97163.42;;;20.25;95.30
57847;BME280;43675;50.030;21.952;2023-08-06T03:41:12;97160.52;;;20.29;95.36
57847;BME280;43675;50.030;21.952;2023-08-06T03:43:39;97154.52;;;20.32;95.47
57847;BME280;43675;50.030;21.952;2023-08-06T03:46:05;97150.23;;;20.35;95.37
57847;BME280;43675;50.030;21.952;2023-08-06T03:48:32;97144.73;;;20.37;95.40
57847;BME280;43675;50.030;21.952;2023-08-06T03:50:58;97142.84;;;20.40;95.40
57847;BME280;43675;50.030;21.952;2023-08-06T03:53:25;97145.10;;;20.43;95.30
57847;BME280;43675;50.030;21.952;2023-08-06T03:55:51;97141.59;;;20.45;95.43
57847;BME280;43675;50.030;21.952;2023-08-06T03:58:18;97138.52;;;20.48;95.46
57847;BME280;43675;50.030;21.952;2023-08-06T04:00:44;97133.20;;;20.49;95.46
57847;BME280;43675;50.030;21.952;2023-08-06T04:03:11;97127.09;;;20.52;95.49
57847;BME280;43675;50.030;21.952;2023-08-06T04:05:37;97126.00;;;20.53;95.50
57847;BME280;43675;50.030;21.952;2023-08-06T04:08:04;97120.57;;;20.57;95.46
57847;BME280;43675;50.030;21.952;2023-08-06T04:10:30;97110.09;;;20.61;95.50
57847;BME280;43675;50.030;21.952;2023-08-06T04:12:57;97111.23;;;20.66;95.50
57847;BME280;43675;50.030;21.952;2023-08-06T04:15:23;97112.02;;;20.73;95.55
57847;BME280;43675;50.030;21.952;2023-08-06T04:17:50;97106.87;;;20.80;95.49
57847;BME280;43675;50.030;21.952;2023-08-06T04:20:17;97103.87;;;20.85;95.39
57847;BME280;43675;50.030;21.952;2023-08-06T04:22:43;97104.34;;;20.91;95.26
57847;BME280;43675;50.030;21.952;2023-08-06T04:25:10;97100.79;;;20.95;95.11
57847;BME280;43675;50.030;21.952;2023-08-06T04:27:36;97093.13;;;20.99;95.09
57847;BME280;43675;50.030;21.952;2023-08-06T04:30:03;97091.09;;;21.04;94.96
57847;BME280;43675;50.030;21.952;2023-08-06T04:32:30;97084.67;;;21.08;94.98
57847;BME280;43675;50.030;21.952;2023-08-06T04:34:56;97083.61;;;21.24;94.60
57847;BME280;43675;50.030;21.952;2023-08-06T04:37:23;97081.87;;;21.40;93.95
57847;BME280;43675;50.030;21.952;2023-08-06T04:39:49;97081.41;;;21.46;93.39
57847;BME280;43675;50.030;21.952;2023-08-06T04:42:16;97076.41;;;21.39;93.34
57847;BME280;43675;50.030;21.952;2023-08-06T04:44:42;97076.58;;;21.34;93.56
57847;BME280;43675;50.030;21.952;2023-08-06T04:47:09;97075.30;;;21.33;93.63
57847;BME280;43675;50.030;21.952;2023-08-06T04:49:35;97074.48;;;21.46;93.39
57847;BME280;43675;50.030;21.952;2023-08-06T04:52:02;97068.66;;;21.63;92.91
57847;BME280;43675;50.030;21.952;2023-08-06T04:54:28;97062.96;;;21.80;92.33
57847;BME280;43675;50.030;21.952;2023-08-06T04:56:55;97062.86;;;21.95;91.91
57847;BME280;43675;50.030;21.952;2023-08-06T04:59:21;97059.35;;;22.06;91.40
57847;BME280;43675;50.030;21.952;2023-08-06T05:01:48;97058.41;;;22.04;91.15
57847;BME280;43675;50.030;21.952;2023-08-06T05:04:14;97054.09;;;22.03;91.15
57847;BME280;43675;50.030;21.952;2023-08-06T05:06:41;97049.62;;;22.06;91.04
57847;BME280;43675;50.030;21.952;2023-08-06T05:09:07;97043.96;;;22.11;90.69
57847;BME280;43675;50.030;21.952;2023-08-06T05:11:34;97038.65;;;22.21;90.42
57847;BME280;43675;50.030;21.952;2023-08-06T05:14:00;97035.52;;;22.34;89.85
57847;BME280;43675;50.030;21.952;2023-08-06T05:16:28;97038.88;;;22.49;89.28
57847;BME280;43675;50.030;21.952;2023-08-06T05:18:54;97036.70;;;22.68;88.66
57847;BME280;43675;50.030;21.952;2023-08-06T05:21:21;97037.65;;;22.88;87.88
57847;BME280;43675;50.030;21.952;2023-08-06T05:23:47;97034.82;;;23.08;87.06
57847;BME280;43675;50.030;21.952;2023-08-06T05:26:14;97028.14;;;23.25;86.15
57847;BME280;43675;50.030;21.952;2023-08-06T05:28:40;97026.89;;;23.39;85.18
57847;BME280;43675;50.030;21.952;2023-08-06T05:31:07;97022.50;;;23.54;84.48
57847;BME280;43675;50.030;21.952;2023-08-06T05:33:33;97025.38;;;23.69;83.85
57847;BME280;43675;50.030;21.952;2023-08-06T05:36:00;97022.33;;;23.83;83.12
57847;BME280;43675;50.030;21.952;2023-08-06T05:38:26;97021.77;;;23.92;82.28
57847;BME280;43675;50.030;21.952;2023-08-06T05:40:53;97022.30;;;23.98;81.84
57847;BME280;43675;50.030;21.952;2023-08-06T05:43:19;97022.32;;;23.99;80.93
57847;BME280;43675;50.030;21.952;2023-08-06T05:45:46;97015.92;;;23.97;80.73
57847;BME280;43675;50.030;21.952;2023-08-06T05:48:15;97013.16;;;23.96;80.42
57847;BME280;43675;50.030;21.952;2023-08-06T05:50:42;97011.52;;;24.01;79.90
57847;BME280;43675;50.030;21.952;2023-08-06T05:53:08;97006.17;;;23.93;79.55
57847;BME280;43675;50.030;21.952;2023-08-06T05:55:35;97007.77;;;23.85;79.47
57847;BME280;43675;50.030;21.952;2023-08-06T05:58:01;97001.30;;;23.79;79.40
57847;BME280;43675;50.030;21.952;2023-08-06T06:00:28;97002.27;;;23.75;79.22
57847;BME280;43675;50.030;21.952;2023-08-06T06:02:54;96998.86;;;23.77;79.25
57847;BME280;43675;50.030;21.952;2023-08-06T06:05:21;96992.98;;;23.78;78.85
57847;BME280;43675;50.030;21.952;2023-08-06T06:07:47;96987.48;;;23.80;78.73
57847;BME280;43675;50.030;21.952;2023-08-06T06:10:14;96982.40;;;23.82;78.33
57847;BME280;43675;50.030;21.952;2023-08-06T06:12:40;96980.82;;;23.96;77.93
57847;BME280;43675;50.030;21.952;2023-08-06T06:15:07;96980.51;;;24.13;77.08
57847;BME280;43675;50.030;21.952;2023-08-06T06:17:34;96976.80;;;24.29;76.77
57847;BME280;43675;50.030;21.952;2023-08-06T06:20:00;96976.02;;;24.38;76.26
57847;BME280;43675;50.030;21.952;2023-08-06T06:22:27;96973.46;;;24.47;75.71
57847;BME280;43675;50.030;21.952;2023-08-06T06:24:54;96972.25;;;24.72;75.10
57847;BME280;43675;50.030;21.952;2023-08-06T06:27:20;96976.80;;;25.03;74.19
57847;BME280;43675;50.030;21.952;2023-08-06T06:29:47;96974.34;;;25.33;73.26
57847;BME280;43675;50.030;21.952;2023-08-06T06:32:13;96971.84;;;25.53;72.67
57847;BME280;43675;50.030;21.952;2023-08-06T06:34:39;96974.41;;;25.73;71.81
57847;BME280;43675;50.030;21.952;2023-08-06T06:37:06;96977.55;;;25.98;70.82
57847;BME280;43675;50.030;21.952;2023-08-06T06:39:33;96978.30;;;26.09;70.63
57847;BME280;43675;50.030;21.952;2023-08-06T06:41:59;96975.21;;;26.18;70.22
57847;BME280;43675;50.030;21.952;2023-08-06T06:44:26;96977.31;;;26.36;69.72
57847;BME280;43675;50.030;21.952;2023-08-06T06:46:52;96981.91;;;26.58;69.17
57847;BME280;43675;50.030;21.952;2023-08-06T06:49:19;96985.08;;;26.76;68.45
57847;BME280;43675;50.030;21.952;2023-08-06T06:51:45;96985.00;;;26.94;67.74
57847;BME280;43675;50.030;21.952;2023-08-06T06:54:12;96980.25;;;27.11;67.51
57847;BME280;43675;50.030;21.952;2023-08-06T06:56:38;96977.16;;;27.26;66.52
57847;BME280;43675;50.030;21.952;2023-08-06T06:59:04;96975.55;;;27.25;65.60
57847;BME280;43675;50.030;21.952;2023-08-06T07:01:31;96970.88;;;27.14;65.23
57847;BME280;43675;50.030;21.952;2023-08-06T07:03:57;96967.40;;;27.10;65.55
57847;BME280;43675;50.030;21.952;2023-08-06T07:06:24;96966.66;;;27.08;65.01
57847;BME280;43675;50.030;21.952;2023-08-06T07:08:50;96964.70;;;27.05;64.55
57847;BME280;43675;50.030;21.952;2023-08-06T07:11:17;96966.96;;;27.04;64.45
57847;BME280;43675;50.030;21.952;2023-08-06T07:13:43;96960.77;;;27.01;64.26
57847;BME280;43675;50.030;21.952;2023-08-06T07:16:10;96959.63;;;26.99;64.19
57847;BME280;43675;50.030;21.952;2023-08-06T07:18:37;96954.77;;;26.97;64.13
57847;BME280;43675;50.030;21.952;2023-08-06T07:21:03;96951.35;;;26.99;64.24
57847;BME280;43675;50.030;21.952;2023-08-06T07:23:30;96950.29;;;27.00;63.76
57847;BME280;43675;50.030;21.952;2023-08-06T07:25:56;96953.84;;;27.01;63.84
57847;BME280;43675;50.030;21.952;2023-08-06T07:28:23;96949.33;;;26.99;63.64
57847;BME280;43675;50.030;21.952;2023-08-06T07:30:49;96948.32;;;27.00;63.69
57847;BME280;43675;50.030;21.952;2023-08-06T07:33:15;96952.20;;;27.02;63.89
57847;BME280;43675;50.030;21.952;2023-08-06T07:35:42;96953.94;;;27.06;63.90
57847;BME280;43675;50.030;21.952;2023-08-06T07:38:08;96953.66;;;27.15;63.81
57847;BME280;43675;50.030;21.952;2023-08-06T07:40:36;96952.43;;;27.29;63.65
57847;BME280;43675;50.030;21.952;2023-08-06T07:43:03;96949.84;;;27.46;63.25
57847;BME280;43675;50.030;21.952;2023-08-06T07:45:35;96947.59;;;27.68;62.75
57847;BME280;43675;50.030;21.952;2023-08-06T07:48:02;96947.45;;;27.87;61.85
57847;BME280;43675;50.030;21.952;2023-08-06T07:50:29;96947.95;;;28.03;59.82
57847;BME280;43675;50.030;21.952;2023-08-06T07:52:56;96943.65;;;28.09;58.87
57847;BME280;43675;50.030;21.952;2023-08-06T07:55:25;96940.25;;;28.13;58.56
57847;BME280;43675;50.030;21.952;2023-08-06T07:57:52;96939.25;;;28.20;58.24
57847;BME280;43675;50.030;21.952;2023-08-06T08:00:18;96939.59;;;28.26;58.06
57847;BME280;43675;50.030;21.952;2023-08-06T08:02:45;96930.82;;;28.30;57.68
57847;BME280;43675;50.030;21.952;2023-08-06T08:05:11;96931.55;;;28.36;57.68
57847;BME280;43675;50.030;21.952;2023-08-06T08:07:38;96932.49;;;28.42;57.25
57847;BME280;43675;50.030;21.952;2023-08-06T08:10:05;96931.59;;;28.45;56.64
57847;BME280;43675;50.030;21.952;2023-08-06T08:12:32;96927.77;;;28.48;56.47
57847;BME280;43675;50.030;21.952;2023-08-06T08:14:58;96930.19;;;28.51;56.31
57847;BME280;43675;50.030;21.952;2023-08-06T08:17:25;96930.15;;;28.55;55.90
57847;BME280;43675;50.030;21.952;2023-08-06T08:19:51;96929.22;;;28.56;55.66
57847;BME280;43675;50.030;21.952;2023-08-06T08:22:18;96928.64;;;28.59;55.31
57847;BME280;43675;50.030;21.952;2023-08-06T08:24:44;96926.60;;;28.66;55.24
57847;BME280;43675;50.030;21.952;2023-08-06T08:27:11;96931.83;;;28.77;54.75
57847;BME280;43675;50.030;21.952;2023-08-06T08:29:37;96927.98;;;28.86;54.52
57847;BME280;43675;50.030;21.952;2023-08-06T08:32:04;96932.39;;;28.90;53.83
57847;BME280;43675;50.030;21.952;2023-08-06T08:34:30;96939.48;;;28.91;53.26
57847;BME280;43675;50.030;21.952;2023-08-06T08:36:57;96940.80;;;28.94;53.03
57847;BME280;43675;50.030;21.952;2023-08-06T08:39:23;96943.48;;;29.00;53.12
57847;BME280;43675;50.030;21.952;2023-08-06T08:41:50;96940.31;;;29.06;52.96
57847;BME280;43675;50.030;21.952;2023-08-06T08:44:17;96934.96;;;29.14;52.86
57847;BME280;43675;50.030;21.952;2023-08-06T08:46:44;96924.48;;;29.16;52.52
57847;BME280;43675;50.030;21.952;2023-08-06T08:49:11;96924.23;;;29.20;52.30
57847;BME280;43675;50.030;21.952;2023-08-06T08:51:38;96923.76;;;29.22;52.20
57847;BME280;43675;50.030;21.952;2023-08-06T08:54:07;96933.23;;;29.34;51.79
57847;BME280;43675;50.030;21.952;2023-08-06T08:56:35;96945.45;;;29.48;51.30
57847;BME280;43675;50.030;21.952;2023-08-06T08:59:01;96954.27;;;29.68;50.52
57847;BME280;43675;50.030;21.952;2023-08-06T09:01:28;96947.15;;;29.84;50.00
57847;BME280;43675;50.030;21.952;2023-08-06T09:03:55;96950.92;;;29.94;49.86
57847;BME280;43675;50.030;21.952;2023-08-06T09:06:25;96947.44;;;30.04;49.62
57847;BME280;43675;50.030;21.952;2023-08-06T09:09:06;96943.56;;;30.15;49.33
57847;BME280;43675;50.030;21.952;2023-08-06T09:11:41;96939.02;;;30.31;49.43
57847;BME280;43675;50.030;21.952;2023-08-06T09:14:09;96937.79;;;30.45;49.20
57847;BME280;43675;50.030;21.952;2023-08-06T09:16:36;96932.20;;;30.60;49.05
57847;BME280;43675;50.030;21.952;2023-08-06T09:19:12;96937.31;;;30.71;48.85
57847;BME280;43675;50.030;21.952;2023-08-06T09:21:40;96934.02;;;30.75;48.92
57847;BME280;43675;50.030;21.952;2023-08-06T09:24:10;96939.46;;;30.59;48.57
57847;BME280;43675;50.030;21.952;2023-08-06T09:26:42;96955.67;;;30.27;48.66
57847;BME280;43675;50.030;21.952;2023-08-06T09:29:10;96962.51;;;29.93;49.02
57847;BME280;43675;50.030;21.952;2023-08-06T09:31:48;96962.08;;;29.67;49.23
57847;BME280;43675;50.030;21.952;2023-08-06T09:34:16;96962.27;;;29.47;49.34
57847;BME280;43675;50.030;21.952;2023-08-06T09:36:47;96955.51;;;29.34;49.31
57847;BME280;43675;50.030;21.952;2023-08-06T09:39:14;96954.23;;;29.28;49.52
57847;BME280;43675;50.030;21.952;2023-08-06T09:41:43;96954.61;;;29.27;49.24
57847;BME280;43675;50.030;21.952;2023-08-06T09:44:20;96959.02;;;29.27;49.62
57847;BME280;43675;50.030;21.952;2023-08-06T09:46:52;96954.99;;;29.39;49.78
57847;BME280;43675;50.030;21.952;2023-08-06T09:49:21;96953.76;;;29.65;49.28
57847;BME280;43675;50.030;21.952;2023-08-06T09:51:48;96950.52;;;29.88;48.80
57847;BME280;43675;50.030;21.952;2023-08-06T09:54:17;96955.02;;;30.03;48.11
57847;BME280;43675;50.030;21.952;2023-08-06T09:56:44;96962.27;;;29.99;47.71
57847;BME280;43675;50.030;21.952;2023-08-06T09:59:10;96970.23;;;29.83;47.76
57847;BME280;43675;50.030;21.952;2023-08-06T10:01:37;96965.25;;;29.60;47.94
57847;BME280;43675;50.030;21.952;2023-08-06T10:04:05;96961.40;;;29.39;48.48
57847;BME280;43675;50.030;21.952;2023-08-06T10:06:35;96968.08;;;29.19;48.68
57847;BME280;43675;50.030;21.952;2023-08-06T10:09:02;96973.25;;;28.96;48.83
57847;BME280;43675;50.030;21.952;2023-08-06T10:11:30;96970.02;;;28.73;48.80
57847;BME280;43675;50.030;21.952;2023-08-06T10:14:09;96972.02;;;28.54;49.22
57847;BME280;43675;50.030;21.952;2023-08-06T10:16:38;96972.52;;;28.36;49.06
57847;BME280;43675;50.030;21.952;2023-08-06T10:19:07;96974.23;;;28.23;49.08
57847;BME280;43675;50.030;21.952;2023-08-06T10:21:35;96970.27;;;28.37;48.88
57847;BME280;43675;50.030;21.952;2023-08-06T10:24:02;96962.98;;;28.62;48.60
57847;BME280;43675;50.030;21.952;2023-08-06T10:26:29;96957.55;;;28.84;48.39
57847;BME280;43675;50.030;21.952;2023-08-06T10:28:56;96949.03;;;28.90;48.04
57847;BME280;43675;50.030;21.952;2023-08-06T10:31:55;96949.45;;;28.86;47.80
57847;BME280;43675;50.030;21.952;2023-08-06T10:34:24;96946.73;;;28.68;47.91
57847;BME280;43675;50.030;21.952;2023-08-06T10:36:54;96944.55;;;28.53;47.93
57847;BME280;43675;50.030;21.952;2023-08-06T10:39:21;96937.23;;;28.42;48.05
57847;BME280;43675;50.030;21.952;2023-08-06T10:41:47;96930.50;;;28.46;48.10
57847;BME280;43675;50.030;21.952;2023-08-06T10:44:14;96925.05;;;28.51;48.19
57847;BME280;43675;50.030;21.952;2023-08-06T10:46:41;96920.88;;;28.57;48.20
57847;BME280;43675;50.030;21.952;2023-08-06T10:49:07;96927.18;;;28.63;48.21
57847;BME280;43675;50.030;21.952;2023-08-06T10:51:34;96925.05;;;28.72;48.33
57847;BME280;43675;50.030;21.952;2023-08-06T10:54:02;96922.02;;;28.88;48.03
57847;BME280;43675;50.030;21.952;2023-08-06T10:56:28;96910.88;;;29.06;47.32
57847;BME280;43675;50.030;21.952;2023-08-06T10:58:56;96906.05;;;29.20;47.16
57847;BME280;43675;50.030;21.952;2023-08-06T11:01:24;96909.37;;;29.32;47.25
57847;BME280;43675;50.030;21.952;2023-08-06T11:03:51;96912.77;;;29.41;46.97
57847;BME280;43675;50.030;21.952;2023-08-06T11:06:18;96911.98;;;29.39;47.28
57847;BME280;43675;50.030;21.952;2023-08-06T11:08:53;96909.96;;;29.30;47.15
57847;BME280;43675;50.030;21.952;2023-08-06T11:11:20;96913.02;;;29.16;47.59
57847;BME280;43675;50.030;21.952;2023-08-06T11:13:48;96918.55;;;29.06;48.09
57847;BME280;43675;50.030;21.952;2023-08-06T11:16:17;96916.88;;;29.00;48.27
57847;BME280;43675;50.030;21.952;2023-08-06T11:18:45;96926.37;;;28.95;48.27
57847;BME280;43675;50.030;21.952;2023-08-06T11:21:11;96925.54;;;28.85;48.50
57847;BME280;43675;50.030;21.952;2023-08-06T11:23:38;96923.02;;;28.73;48.84
57847;BME280;43675;50.030;21.952;2023-08-06T11:26:07;96922.49;;;28.69;48.84
57847;BME280;43675;50.030;21.952;2023-08-06T11:28:34;96915.13;;;28.73;48.81
57847;BME280;43675;50.030;21.952;2023-08-06T11:31:00;96916.59;;;28.83;48.95
57847;BME280;43675;50.030;21.952;2023-08-06T11:33:27;96921.02;;;28.95;48.74
57847;BME280;43675;50.030;21.952;2023-08-06T11:35:55;96920.71;;;29.04;47.97
57847;BME280;43675;50.030;21.952;2023-08-06T11:38:25;96914.39;;;29.10;47.83
57847;BME280;43675;50.030;21.952;2023-08-06T11:40:52;96906.02;;;29.16;47.48
57847;BME280;43675;50.030;21.952;2023-08-06T11:43:19;96903.20;;;29.20;47.27
57847;BME280;43675;50.030;21.952;2023-08-06T11:45:46;96906.35;;;29.17;47.16
57847;BME280;43675;50.030;21.952;2023-08-06T11:48:13;96908.70;;;29.09;46.57
57847;BME280;43675;50.030;21.952;2023-08-06T11:50:39;96913.70;;;28.97;46.52
57847;BME280;43675;50.030;21.952;2023-08-06T11:53:06;96915.61;;;28.87;46.43
57847;BME280;43675;50.030;21.952;2023-08-06T11:55:33;96917.88;;;28.85;46.48
57847;BME280;43675;50.030;21.952;2023-08-06T11:58:03;96918.38;;;28.93;46.10
57847;BME280;43675;50.030;21.952;2023-08-06T12:00:30;96917.87;;;29.04;46.03
57847;BME280;43675;50.030;21.952;2023-08-06T12:02:57;96917.71;;;29.10;45.55
57847;BME280;43675;50.030;21.952;2023-08-06T12:05:28;96908.32;;;29.10;45.64
57847;BME280;43675;50.030;21.952;2023-08-06T12:07:56;96901.90;;;29.07;45.53
57847;BME280;43675;50.030;21.952;2023-08-06T12:10:25;96899.77;;;29.01;45.67
57847;BME280;43675;50.030;21.952;2023-08-06T12:12:52;96896.52;;;28.93;45.59
57847;BME280;43675;50.030;21.952;2023-08-06T12:15:19;96893.66;;;28.85;45.41
57847;BME280;43675;50.030;21.952;2023-08-06T12:17:46;96890.50;;;28.77;45.27
57847;BME280;43675;50.030;21.952;2023-08-06T12:20:13;96890.14;;;28.74;45.76
57847;BME280;43675;50.030;21.952;2023-08-06T12:22:39;96893.70;;;28.76;45.85
57847;BME280;43675;50.030;21.952;2023-08-06T12:25:08;96886.09;;;28.79;45.92
57847;BME280;43675;50.030;21.952;2023-08-06T12:27:35;96887.46;;;28.81;45.67
57847;BME280;43675;50.030;21.952;2023-08-06T12:30:02;96892.09;;;28.84;45.71
57847;BME280;43675;50.030;21.952;2023-08-06T12:32:29;96902.63;;;28.89;45.80
57847;BME280;43675;50.030;21.952;2023-08-06T12:34:56;96912.83;;;28.91;45.95
57847;BME280;43675;50.030;21.952;2023-08-06T12:37:24;96915.27;;;28.90;45.68
57847;BME280;43675;50.030;21.952;2023-08-06T12:39:51;96918.93;;;28.87;45.22
57847;BME280;43675;50.030;21.952;2023-08-06T12:42:20;96913.63;;;28.92;45.05
57847;BME280;43675;50.030;21.952;2023-08-06T12:44:50;96916.31;;;28.99;45.29
57847;BME280;43675;50.030;21.952;2023-08-06T12:47:17;96912.84;;;28.99;44.74
57847;BME280;43675;50.030;21.952;2023-08-06T12:49:43;96927.81;;;28.98;44.72
57847;BME280;43675;50.030;21.952;2023-08-06T12:52:10;96925.48;;;29.00;44.90
57847;BME280;43675;50.030;21.952;2023-08-06T12:54:36;96921.52;;;28.99;44.76
57847;BME280;43675;50.030;21.952;2023-08-06T12:57:04;96924.48;;;28.96;44.70